Time;durP1;ratioP1;P1;durP2;ratioP2;P2;SDS_P1;SDS_P2;PMS_P1;PMS_P2;Temp;Humidity;BMP_temperature;BMP_pressure;BME280_temperature;BME280_humidity;BME280_pressure;Samples;Min_cycle;Max_cycle;Signal;HPM_P1;HPM_P2
2021/11/19 00:02:39;;;;;;;27.23;11.53;;;6.20;99.90;;;;;;5099122;28;20218;-69
2021/11/19 00:05:27;;;;;;;24.03;10.97;;;6.20;99.90;;;;;;5096481;28;20706;-69
2021/11/19 00:08:15;;;;;;;25.03;11.20;;;6.20;99.90;;;;;;5101598;28;20198;-69
2021/11/19 00:11:05;;;;;;;25.53;12.20;;;6.20;99.90;;;;;;5095624;28;20187;-69
2021/11/19 00:13:53;;;;;;;21.70;10.20;;;6.30;99.90;;;;;;5095397;28;20211;-69
2021/11/19 00:16:43;;;;;;;22.27;12.00;;;6.30;99.90;;;;;;5099478;28;20350;-68
2021/11/19 00:19:30;;;;;;;21.77;10.33;;;6.30;99.90;;;;;;5101886;28;20216;-69
2021/11/19 00:22:19;;;;;;;25.60;11.17;;;6.30;99.90;;;;;;5092840;28;20199;-68
2021/11/19 00:25:07;;;;;;;23.83;9.60;;;6.20;99.90;;;;;;5094162;28;20196;-69
2021/11/19 00:27:55;;;;;;;31.70;11.80;;;6.20;99.90;;;;;;5100077;28;20200;-69
2021/11/19 00:30:43;;;;;;;24.53;10.33;;;6.30;99.90;;;;;;5102792;28;20192;-69
2021/11/19 00:33:32;;;;;;;19.67;9.40;;;6.30;99.90;;;;;;5107000;28;20231;-69
2021/11/19 00:36:21;;;;;;;25.10;10.97;;;6.30;99.90;;;;;;5098680;28;20205;-68
2021/11/19 00:39:14;;;;;;;23.33;10.83;;;6.30;99.90;;;;;;5098404;28;20224;-69
2021/11/19 00:42:02;;;;;;;18.83;7.93;;;6.30;99.90;;;;;;5099450;28;20199;-69
2021/11/19 00:44:49;;;;;;;24.37;10.40;;;6.20;99.90;;;;;;5092447;28;20262;-68
2021/11/19 00:47:37;;;;;;;22.33;10.03;;;6.20;99.90;;;;;;5099422;28;20192;-69
2021/11/19 00:50:27;;;;;;;24.33;11.37;;;6.20;99.90;;;;;;5099475;28;20694;-69
2021/11/19 00:53:15;;;;;;;17.33;8.00;;;6.20;99.90;;;;;;5097517;28;20694;-69
2021/11/19 00:56:02;;;;;;;26.53;11.63;;;6.20;99.90;;;;;;5097660;28;20219;-69
2021/11/19 00:58:50;;;;;;;23.00;10.50;;;6.20;99.90;;;;;;5100287;28;20219;-68
2021/11/19 01:01:40;;;;;;;25.87;11.20;;;6.10;99.90;;;;;;5103647;28;20192;-69
2021/11/19 01:04:27;;;;;;;27.17;11.93;;;6.10;99.90;;;;;;5094738;28;20699;-69
2021/11/19 01:07:17;;;;;;;24.70;12.53;;;6.10;99.90;;;;;;5090513;28;20201;-69
2021/11/19 01:10:07;;;;;;;23.33;11.70;;;6.00;99.90;;;;;;5095406;28;20203;-69
2021/11/19 01:12:55;;;;;;;25.13;11.40;;;6.00;99.90;;;;;;5099659;28;20234;-69
2021/11/19 01:15:45;;;;;;;31.97;13.77;;;6.00;99.90;;;;;;5103959;28;20215;-69
2021/11/19 01:18:35;;;;;;;25.67;11.67;;;6.00;99.90;;;;;;5092383;28;20580;-69
2021/11/19 01:21:24;;;;;;;14.57;7.47;;;6.00;99.90;;;;;;5097888;28;20257;-69
2021/11/19 01:24:14;;;;;;;25.97;12.67;;;6.00;99.90;;;;;;5102046;28;20195;-69
2021/11/19 01:27:01;;;;;;;27.17;12.27;;;6.00;99.90;;;;;;5101436;28;20199;-68
2021/11/19 01:29:49;;;;;;;24.10;11.83;;;6.00;99.90;;;;;;5093644;28;20680;-69
2021/11/19 01:32:37;;;;;;;19.33;10.23;;;5.90;99.90;;;;;;5102839;28;20206;-69
2021/11/19 01:35:24;;;;;;;24.20;12.47;;;5.90;99.90;;;;;;5102689;28;20218;-69
2021/11/19 01:38:12;;;;;;;21.03;8.83;;;5.90;99.90;;;;;;5098010;28;20693;-69
2021/11/19 01:41:05;;;;;;;22.17;10.13;;;5.90;99.90;;;;;;5098245;28;20200;-69
2021/11/19 01:43:55;;;;;;;26.07;12.83;;;5.90;99.90;;;;;;5106529;28;20545;-69
2021/11/19 01:46:44;;;;;;;26.00;12.27;;;5.90;99.90;;;;;;5098829;28;20237;-69
2021/11/19 01:49:32;;;;;;;23.57;11.70;;;5.80;99.90;;;;;;5103058;28;20215;-68
2021/11/19 01:52:21;;;;;;;21.97;10.80;;;5.80;99.90;;;;;;5104750;28;20210;-69
2021/11/19 01:55:14;;;;;;;28.10;11.03;;;5.80;99.90;;;;;;5102074;28;20218;-69
2021/11/19 01:58:05;;;;;;;29.10;11.83;;;5.80;99.90;;;;;;5097612;28;20196;-69
2021/11/19 02:00:56;;;;;;;21.20;10.53;;;5.80;99.90;;;;;;5098292;28;20207;-69
2021/11/19 02:03:48;;;;;;;26.80;11.13;;;5.80;99.90;;;;;;5094311;28;20834;-69
2021/11/19 02:06:37;;;;;;;17.87;9.10;;;5.70;99.90;;;;;;5093240;28;20204;-69
2021/11/19 02:09:27;;;;;;;25.23;12.00;;;5.80;99.90;;;;;;5100983;28;20330;-68
2021/11/19 02:12:22;;;;;;;26.40;13.00;;;5.80;99.90;;;;;;5098747;28;20532;-69
2021/11/19 02:15:14;;;;;;;25.23;13.13;;;5.70;99.90;;;;;;5103307;28;20202;-69
2021/11/19 02:18:08;;;;;;;27.70;13.00;;;5.70;99.90;;;;;;5101494;28;20851;-69
2021/11/19 02:20:58;;;;;;;29.37;11.60;;;5.60;99.90;;;;;;5095530;28;20888;-69
2021/11/19 02:23:47;;;;;;;22.23;10.40;;;5.60;99.90;;;;;;5091569;28;20221;-69
2021/11/19 02:26:38;;;;;;;28.67;12.97;;;5.60;99.90;;;;;;5107737;28;20633;-69
2021/11/19 02:29:26;;;;;;;27.37;13.43;;;5.60;99.90;;;;;;5103926;28;20563;-68
2021/11/19 02:32:17;;;;;;;34.67;14.00;;;5.50;99.90;;;;;;5101629;28;20204;-69
2021/11/19 02:35:05;;;;;;;35.57;14.50;;;5.50;99.90;;;;;;5100128;28;20238;-69
2021/11/19 02:37:55;;;;;;;30.23;14.53;;;5.40;99.90;;;;;;5093414;28;20202;-69
2021/11/19 02:40:43;;;;;;;28.07;15.60;;;5.40;99.90;;;;;;5104947;28;20287;-69
2021/11/19 02:43:33;;;;;;;22.53;11.33;;;5.40;99.90;;;;;;5106526;28;20199;-69
2021/11/19 02:46:22;;;;;;;20.43;9.20;;;5.40;99.90;;;;;;5106476;28;20217;-68
2021/11/19 02:49:11;;;;;;;23.97;11.07;;;5.30;99.90;;;;;;5111023;28;20187;-68
2021/11/19 02:51:59;;;;;;;31.77;14.67;;;5.20;99.90;;;;;;5109631;28;20247;-68
2021/11/19 02:54:47;;;;;;;20.70;10.30;;;5.20;99.90;;;;;;5108930;28;20215;-69
2021/11/19 02:57:34;;;;;;;27.00;12.33;;;5.10;99.90;;;;;;5104051;28;20954;-69
2021/11/19 03:00:24;;;;;;;32.03;13.40;;;5.10;99.90;;;;;;5098633;28;20219;-68
2021/11/19 03:03:12;;;;;;;30.20;13.23;;;5.10;99.90;;;;;;5099409;28;20196;-68
2021/11/19 03:06:01;;;;;;;32.27;15.27;;;5.10;99.90;;;;;;5111069;28;20198;-68
2021/11/19 03:08:48;;;;;;;25.97;12.57;;;5.10;99.90;;;;;;5100691;28;20219;-69
2021/11/19 03:11:36;;;;;;;29.40;15.13;;;5.00;99.90;;;;;;5099565;28;20196;-68
2021/11/19 03:14:24;;;;;;;22.13;9.70;;;5.00;99.90;;;;;;5092361;28;20211;-68
2021/11/19 03:17:12;;;;;;;29.97;14.33;;;5.00;99.90;;;;;;5104234;28;20199;-68
2021/11/19 03:19:59;;;;;;;18.90;9.27;;;5.00;99.90;;;;;;5102023;28;20292;-68
2021/11/19 03:22:49;;;;;;;31.73;16.50;;;5.00;99.90;;;;;;5107776;28;20246;-68
2021/11/19 03:25:38;;;;;;;33.97;16.77;;;4.90;99.90;;;;;;5107825;28;20203;-68
2021/11/19 03:28:26;;;;;;;38.87;16.83;;;4.90;99.90;;;;;;5103295;28;20192;-69
2021/11/19 03:31:15;;;;;;;21.70;10.53;;;4.90;99.90;;;;;;5091275;28;20689;-68
2021/11/19 03:34:03;;;;;;;35.47;15.63;;;4.90;99.90;;;;;;5092648;28;20228;-68
2021/11/19 03:36:52;;;;;;;38.80;15.37;;;4.90;99.90;;;;;;5106846;28;20192;-69
2021/11/19 03:39:41;;;;;;;34.47;16.87;;;4.80;99.90;;;;;;5107744;28;20581;-68
2021/11/19 03:42:31;;;;;;;25.37;10.13;;;4.80;99.90;;;;;;5108078;28;20692;-68
2021/11/19 03:45:20;;;;;;;39.77;16.97;;;4.90;99.90;;;;;;5100633;28;20196;-68
2021/11/19 03:48:08;;;;;;;32.93;15.77;;;4.90;99.90;;;;;;5093515;28;20203;-68
2021/11/19 03:50:58;;;;;;;34.97;15.83;;;4.80;99.90;;;;;;5093546;28;20204;-68
2021/11/19 03:53:46;;;;;;;33.27;13.93;;;4.80;99.90;;;;;;5102614;28;20549;-68
2021/11/19 03:56:35;;;;;;;34.90;15.37;;;4.80;99.90;;;;;;5117359;27;20206;-68
2021/11/19 03:59:24;;;;;;;28.80;12.73;;;4.80;99.90;;;;;;5125722;27;20210;-68
2021/11/19 04:02:12;;;;;;;34.77;17.53;;;4.80;99.90;;;;;;5114357;27;20226;-68
2021/11/19 04:05:05;;;;;;;33.60;14.23;;;4.80;99.90;;;;;;5111493;27;20199;-68
2021/11/19 04:07:56;;;;;;;38.03;18.67;;;4.90;99.90;;;;;;5119904;27;20658;-68
2021/11/19 04:10:49;;;;;;;40.53;18.60;;;4.80;99.90;;;;;;5114219;27;20211;-69
2021/11/19 04:13:40;;;;;;;21.70;9.23;;;4.80;99.90;;;;;;5124044;27;20205;-68
2021/11/19 04:16:30;;;;;;;37.77;15.27;;;4.80;99.90;;;;;;5126995;27;20203;-69
2021/11/19 04:19:20;;;;;;;36.67;16.63;;;4.80;99.90;;;;;;5114710;27;20272;-68
2021/11/19 04:22:11;;;;;;;38.70;16.87;;;4.80;99.90;;;;;;5116591;27;20195;-68
2021/11/19 04:25:04;;;;;;;33.63;17.63;;;4.80;99.90;;;;;;5122273;27;20198;-70
2021/11/19 04:27:53;;;;;;;37.27;17.60;;;4.80;99.90;;;;;;5127225;27;20584;-69
2021/11/19 04:30:45;;;;;;;37.77;16.43;;;4.80;99.90;;;;;;5126716;27;20189;-70
2021/11/19 04:33:33;;;;;;;30.63;16.07;;;4.80;99.90;;;;;;5126707;27;20278;-70
2021/11/19 04:36:21;;;;;;;31.70;16.30;;;4.80;99.90;;;;;;5124722;27;20199;-69
2021/11/19 04:39:10;;;;;;;33.30;16.13;;;4.80;99.90;;;;;;5122649;27;20233;-69
2021/11/19 04:41:57;;;;;;;30.33;14.73;;;4.90;99.90;;;;;;5119803;27;20221;-69
2021/11/19 04:44:46;;;;;;;31.87;15.53;;;4.80;99.90;;;;;;5120021;27;20279;-70
2021/11/19 04:47:35;;;;;;;32.73;17.13;;;4.80;99.90;;;;;;5111208;27;20197;-70
2021/11/19 04:50:25;;;;;;;36.57;16.67;;;4.80;99.90;;;;;;5111907;27;20585;-70
2021/11/19 04:53:19;;;;;;;33.70;17.20;;;4.80;99.90;;;;;;5109428;28;20660;-69
2021/11/19 04:56:11;;;;;;;35.80;18.50;;;4.80;99.90;;;;;;5121733;27;20813;-69
2021/11/19 04:59:02;;;;;;;32.10;16.60;;;4.80;99.90;;;;;;5116210;27;20203;-71
2021/11/19 05:01:54;;;;;;;36.97;18.43;;;4.80;99.90;;;;;;5118946;27;20572;-70
2021/11/19 05:04:45;;;;;;;26.87;12.93;;;4.80;99.90;;;;;;5114335;27;20200;-70
2021/11/19 05:07:33;;;;;;;43.97;21.10;;;4.80;99.90;;;;;;5111372;27;20588;-70
2021/11/19 05:10:25;;;;;;;45.50;21.77;;;4.80;99.90;;;;;;5122107;27;20199;-70
2021/11/19 05:13:13;;;;;;;49.53;22.10;;;4.80;99.90;;;;;;5113548;27;20199;-70
2021/11/19 05:16:02;;;;;;;37.03;18.10;;;4.80;99.90;;;;;;5113870;27;20199;-70
2021/11/19 05:18:49;;;;;;;33.43;16.17;;;4.80;99.90;;;;;;5117118;27;20203;-70
2021/11/19 05:21:38;;;;;;;39.70;17.57;;;4.80;99.90;;;;;;5119515;27;20297;-70
2021/11/19 05:24:26;;;;;;;30.83;15.23;;;4.80;99.90;;;;;;5117621;27;20286;-70
2021/11/19 05:27:13;;;;;;;36.53;18.60;;;4.90;99.90;;;;;;5118838;27;20191;-71
2021/11/19 05:30:01;;;;;;;35.83;17.30;;;4.90;99.90;;;;;;5126619;27;20191;-71
2021/11/19 05:32:52;;;;;;;40.47;19.80;;;4.90;99.90;;;;;;5123586;27;20203;-71
2021/11/19 05:35:45;;;;;;;36.03;15.53;;;4.90;99.90;;;;;;5118970;27;20257;-71
2021/11/19 05:38:37;;;;;;;38.27;18.43;;;4.90;99.90;;;;;;5118521;28;20203;-70
2021/11/19 05:41:31;;;;;;;38.10;18.97;;;4.90;99.90;;;;;;5111850;28;20222;-70
2021/11/19 05:44:19;;;;;;;44.33;21.13;;;4.90;99.90;;;;;;5121031;28;20292;-70
2021/11/19 05:47:09;;;;;;;38.73;18.13;;;5.00;99.90;;;;;;5102841;28;20199;-70
2021/11/19 05:50:00;;;;;;;31.40;14.73;;;4.90;99.90;;;;;;5096852;28;20237;-70
2021/11/19 05:52:48;;;;;;;32.83;16.53;;;4.90;99.90;;;;;;5101975;28;20574;-69
2021/11/19 05:55:45;;;;;;;41.67;20.10;;;4.90;99.90;;;;;;5100825;28;20298;-69
2021/11/19 05:58:34;;;;;;;32.80;16.80;;;5.00;99.90;;;;;;5115120;27;20202;-69
2021/11/19 06:01:22;;;;;;;39.97;19.47;;;5.00;99.90;;;;;;5118761;27;20222;-69
2021/11/19 06:04:09;;;;;;;28.77;14.57;;;5.00;99.90;;;;;;5115790;27;20211;-69
2021/11/19 06:06:57;;;;;;;37.17;17.67;;;5.00;99.90;;;;;;5122945;27;20502;-69
2021/11/19 06:09:47;;;;;;;36.00;16.80;;;5.00;99.90;;;;;;5124027;27;20194;-70
2021/11/19 06:12:40;;;;;;;23.17;11.60;;;5.00;99.90;;;;;;5117078;27;20638;-70
2021/11/19 06:15:29;;;;;;;30.67;16.90;;;5.00;99.90;;;;;;5115482;27;20205;-69
2021/11/19 06:18:22;;;;;;;26.33;13.10;;;5.00;99.90;;;;;;5126511;27;20194;-69
2021/11/19 06:21:12;;;;;;;30.63;14.37;;;5.00;99.90;;;;;;5119938;27;20210;-69
2021/11/19 06:24:13;;;;;;;27.13;14.20;;;5.10;99.90;;;;;;5118971;27;20294;-69
2021/11/19 06:27:01;;;;;;;24.73;11.23;;;5.10;99.90;;;;;;5124348;27;20190;-69
2021/11/19 06:29:50;;;;;;;27.53;15.27;;;5.00;99.90;;;;;;5120550;27;20206;-69
2021/11/19 06:32:38;;;;;;;31.23;14.17;;;5.10;99.90;;;;;;5134051;27;20561;-69
2021/11/19 06:35:26;;;;;;;29.77;13.93;;;5.10;99.90;;;;;;4458049;27;20314;-70
2021/11/19 06:38:38;;;;;;;25.90;13.93;;;5.10;99.90;;;;;;5133549;27;20202;-69
2021/11/19 06:41:29;;;;;;;21.43;11.60;;;5.10;99.90;;;;;;5116215;27;20222;-69
2021/11/19 06:44:16;;;;;;;26.00;14.27;;;5.10;99.90;;;;;;5113638;28;20210;-69
2021/11/19 06:47:06;;;;;;;29.33;15.80;;;5.10;99.90;;;;;;5118103;27;20746;-69
2021/11/19 06:49:53;;;;;;;32.50;15.77;;;5.10;99.90;;;;;;5125980;27;20202;-69
2021/11/19 06:52:41;;;;;;;29.50;14.63;;;5.10;99.90;;;;;;5121503;27;20553;-69
2021/11/19 06:55:28;;;;;;;34.50;16.80;;;5.10;99.90;;;;;;5116227;27;20291;-69
2021/11/19 06:58:16;;;;;;;28.07;15.93;;;5.10;99.90;;;;;;5122442;27;20218;-69
2021/11/19 07:01:04;;;;;;;29.80;13.87;;;5.20;99.90;;;;;;5125790;27;20221;-69
2021/11/19 07:03:53;;;;;;;23.03;10.83;;;5.20;99.90;;;;;;5115375;27;20558;-69
2021/11/19 07:06:40;;;;;;;24.77;13.10;;;5.20;99.90;;;;;;5124465;27;20226;-70
2021/11/19 07:09:28;;;;;;;23.47;12.03;;;5.20;99.90;;;;;;5120386;27;20222;-69
2021/11/19 07:12:15;;;;;;;21.47;11.33;;;5.30;99.90;;;;;;5120289;27;20202;-69
2021/11/19 07:15:03;;;;;;;15.53;8.93;;;5.30;99.90;;;;;;5119919;27;20301;-69
2021/11/19 07:17:51;;;;;;;26.60;13.70;;;5.20;99.90;;;;;;5123107;27;20191;-69
2021/11/19 07:20:40;;;;;;;26.70;15.57;;;5.30;99.90;;;;;;5118221;27;20241;-69
2021/11/19 07:23:28;;;;;;;24.10;12.30;;;5.30;99.90;;;;;;5124550;27;20228;-69
2021/11/19 07:26:15;;;;;;;25.00;12.80;;;5.30;99.90;;;;;;5121229;27;20203;-70
2021/11/19 07:29:03;;;;;;;29.27;13.87;;;5.30;99.90;;;;;;5121346;27;20194;-69
2021/11/19 07:31:51;;;;;;;24.57;12.87;;;5.30;99.90;;;;;;5116582;27;20210;-68
2021/11/19 07:34:39;;;;;;;19.70;11.53;;;5.30;99.90;;;;;;5125901;27;20231;-69
2021/11/19 07:37:28;;;;;;;27.00;13.37;;;5.40;99.90;;;;;;5126427;27;20701;-70
2021/11/19 07:40:16;;;;;;;17.03;8.77;;;5.40;99.90;;;;;;5119356;27;20214;-69
2021/11/19 07:43:04;;;;;;;16.13;8.47;;;5.40;99.90;;;;;;5118615;27;20210;-70
2021/11/19 07:45:51;;;;;;;24.50;12.93;;;5.40;99.90;;;;;;5123959;27;20206;-70
2021/11/19 07:48:40;;;;;;;25.13;14.27;;;5.50;99.90;;;;;;5127956;27;20191;-70
2021/11/19 07:51:37;;;;;;;14.90;8.23;;;5.40;99.90;;;;;;5116345;27;20199;-70
2021/11/19 07:54:26;;;;;;;21.50;12.07;;;5.40;99.90;;;;;;5125242;27;20355;-70
2021/11/19 07:57:13;;;;;;;19.63;11.00;;;5.50;99.90;;;;;;5119667;27;20680;-70
2021/11/19 08:00:01;;;;;;;21.20;11.43;;;5.50;99.90;;;;;;5121192;27;20939;-70
2021/11/19 08:02:48;;;;;;;14.33;7.67;;;5.50;99.90;;;;;;5121661;27;22080;-70
2021/11/19 08:05:36;;;;;;;19.60;11.20;;;5.50;99.90;;;;;;5120901;27;20203;-70
2021/11/19 08:08:24;;;;;;;25.80;14.43;;;5.50;99.90;;;;;;5123363;27;20210;-70
2021/11/19 08:11:13;;;;;;;19.67;11.27;;;5.50;99.90;;;;;;5118166;27;20243;-70
2021/11/19 08:14:01;;;;;;;24.73;13.90;;;5.60;99.90;;;;;;5112063;27;20567;-70
2021/11/19 08:16:50;;;;;;;20.30;10.93;;;5.60;99.90;;;;;;5122964;27;20668;-70
2021/11/19 08:19:44;;;;;;;21.80;11.83;;;5.60;99.90;;;;;;5121405;27;20274;-71
2021/11/19 08:22:33;;;;;;;20.83;10.73;;;5.60;99.90;;;;;;5112469;28;20199;-70
2021/11/19 08:44:19;;;;;;;19.53;11.13;;;5.80;99.90;;;;;;5110725;28;20211;-70
2021/11/19 08:47:07;;;;;;;24.07;13.13;;;5.80;99.90;;;;;;5111580;28;20237;-70
2021/11/19 08:49:55;;;;;;;26.80;13.53;;;5.80;99.90;;;;;;5111599;28;20191;-70
2021/11/19 08:52:43;;;;;;;24.17;14.17;;;5.80;99.90;;;;;;5111389;28;20207;-70
2021/11/19 08:55:31;;;;;;;17.33;10.50;;;5.80;99.90;;;;;;5126068;27;20235;-70
2021/11/19 08:58:18;;;;;;;32.67;17.33;;;5.90;99.90;;;;;;5119509;27;20273;-71
2021/11/19 09:01:08;;;;;;;22.47;12.47;;;5.90;99.90;;;;;;5117087;27;20585;-70
2021/11/19 09:03:55;;;;;;;24.30;13.10;;;5.90;99.90;;;;;;5124451;27;20198;-70
2021/11/19 09:06:43;;;;;;;25.60;15.17;;;5.90;99.90;;;;;;5127408;27;20194;-71
2021/11/19 09:09:31;;;;;;;28.03;16.00;;;6.00;99.90;;;;;;5118244;27;20654;-70
2021/11/19 09:12:18;;;;;;;27.10;15.80;;;5.90;99.90;;;;;;5113951;27;20203;-70
2021/11/19 09:15:08;;;;;;;23.37;12.97;;;6.00;99.90;;;;;;5111979;27;20207;-70
2021/11/19 09:18:07;;;;;;;26.20;16.00;;;6.00;99.90;;;;;;5117767;27;20716;-70
2021/11/19 09:21:14;;;;;;;20.67;11.93;;;6.00;99.90;;;;;;5118710;27;20224;-70
2021/11/19 09:24:07;;;;;;;21.57;12.13;;;6.10;99.90;;;;;;5117983;27;20198;-70
2021/11/19 09:26:57;;;;;;;23.97;12.50;;;6.10;99.90;;;;;;5120972;27;20316;-70
2021/11/19 09:29:45;;;;;;;24.87;13.50;;;6.00;99.90;;;;;;5110877;27;20207;-70
2021/11/19 09:32:33;;;;;;;19.00;11.23;;;6.10;99.90;;;;;;5109538;28;20695;-70
2021/11/19 09:35:23;;;;;;;19.17;11.13;;;6.10;99.90;;;;;;5113817;27;20375;-70
2021/11/19 09:38:12;;;;;;;19.67;11.40;;;6.20;99.90;;;;;;5125952;27;20199;-69
2021/11/19 09:41:14;;;;;;;20.83;12.47;;;6.20;99.90;;;;;;5117250;27;20219;-69
2021/11/19 09:44:06;;;;;;;17.33;10.97;;;6.20;99.90;;;;;;5110778;28;20231;-70
2021/11/19 09:47:41;;;;;;;18.20;10.93;;;6.30;99.90;;;;;;5122598;28;20206;-70
2021/11/19 09:51:08;;;;;;;19.27;10.20;;;6.30;99.90;;;;;;5037356;28;20203;-70
2021/11/19 09:54:29;;;;;;;18.67;11.40;;;6.30;99.90;;;;;;5039086;28;20246;-69
2021/11/19 09:57:58;;;;;;;18.47;10.80;;;6.30;99.90;;;;;;5042869;28;20275;-70
2021/11/19 10:01:18;;;;;;;17.97;10.50;;;6.40;99.90;;;;;;5033550;28;20692;-69
2021/11/19 10:04:26;;;;;;;19.27;10.93;;;6.40;99.90;;;;;;5036869;28;20721;-70
2021/11/19 10:07:23;;;;;;;21.90;11.47;;;6.40;99.90;;;;;;5043137;28;20203;-69
2021/11/19 10:10:40;;;;;;;17.17;9.60;;;6.40;99.90;;;;;;5031167;28;20207;-70
2021/11/19 10:13:43;;;;;;;14.80;7.30;;;6.50;99.90;;;;;;5031306;28;20692;-68
2021/11/19 10:16:37;;;;;;;20.47;12.73;;;6.40;99.90;;;;;;5044244;28;20210;-70
2021/11/19 10:19:26;;;;;;;20.53;11.80;;;6.50;99.90;;;;;;5039510;28;20248;-70
2021/11/19 10:22:20;;;;;;;22.10;12.70;;;6.50;99.90;;;;;;5033030;28;20222;-69
2021/11/19 10:25:12;;;;;;;18.33;11.60;;;6.60;99.90;;;;;;5102846;28;20208;-69
2021/11/19 10:28:00;;;;;;;16.37;8.77;;;6.60;99.90;;;;;;5115293;28;20206;-68
2021/11/19 10:30:50;;;;;;;15.33;9.90;;;6.60;99.90;;;;;;5114743;28;20196;-69
2021/11/19 10:33:43;;;;;;;20.40;10.30;;;6.70;99.90;;;;;;5121064;28;20209;-69
2021/11/19 10:36:48;;;;;;;17.90;9.60;;;6.70;99.90;;;;;;5115117;28;20314;-69
2021/11/19 10:39:52;;;;;;;17.23;10.20;;;6.80;99.90;;;;;;5117773;28;20211;-69
2021/11/19 10:43:12;;;;;;;16.53;10.30;;;6.80;99.90;;;;;;5120508;27;20224;-70
2021/11/19 10:46:38;;;;;;;18.00;10.03;;;6.80;99.90;;;;;;5037154;28;20223;-69
2021/11/19 10:49:55;;;;;;;20.70;12.00;;;6.80;99.90;;;;;;5041662;28;20285;-69
2021/11/19 10:53:09;;;;;;;14.23;9.20;;;6.80;99.90;;;;;;5044130;28;20215;-71
2021/11/19 10:56:15;;;;;;;21.77;12.33;;;6.90;99.90;;;;;;5037257;28;20233;-70
2021/11/19 10:59:31;;;;;;;18.40;11.13;;;6.90;99.90;;;;;;5033948;28;20195;-72
2021/11/19 11:02:35;;;;;;;19.10;11.50;;;6.90;99.90;;;;;;5036032;28;20218;-72
2021/11/19 11:05:32;;;;;;;20.07;12.47;;;7.00;99.90;;;;;;5034343;28;20571;-72
2021/11/19 11:08:25;;;;;;;16.60;10.27;;;7.00;99.90;;;;;;5034514;28;20689;-71
2021/11/19 11:11:15;;;;;;;20.30;11.90;;;7.00;99.90;;;;;;5036479;28;20287;-70
2021/11/19 11:14:04;;;;;;;19.87;11.83;;;7.00;99.90;;;;;;5039821;28;20696;-71
2021/11/19 11:16:51;;;;;;;18.53;10.43;;;7.10;99.90;;;;;;5043593;28;20200;-71
2021/11/19 11:19:44;;;;;;;17.90;11.53;;;7.10;99.90;;;;;;5034825;28;20648;-71
2021/11/19 11:22:35;;;;;;;21.97;13.27;;;7.20;99.90;;;;;;5080822;27;20237;-70
2021/11/19 11:25:27;;;;;;;21.10;13.67;;;7.20;99.90;;;;;;5120005;27;20201;-70
2021/11/19 11:28:17;;;;;;;25.03;15.47;;;7.20;99.90;;;;;;5117769;27;20212;-71
2021/11/19 11:31:22;;;;;;;20.53;11.10;;;7.20;99.90;;;;;;5118361;27;20192;-71
2021/11/19 11:34:18;;;;;;;30.10;15.67;;;7.20;99.90;;;;;;5118192;27;20205;-71
2021/11/19 11:37:12;;;;;;;27.23;15.80;;;7.30;99.90;;;;;;5097880;28;20194;-72
2021/11/19 11:40:07;;;;;;;27.17;15.60;;;7.20;99.90;;;;;;5094069;28;20201;-71
2021/11/19 11:43:13;;;;;;;25.67;15.23;;;7.20;99.90;;;;;;5094122;28;21058;-71
2021/11/19 11:46:03;;;;;;;30.07;17.40;;;7.20;99.90;;;;;;5117211;27;20608;-71
2021/11/19 11:49:10;;;;;;;24.40;14.50;;;7.30;99.90;;;;;;5119764;27;20212;-71
2021/11/19 11:52:02;;;;;;;30.33;17.47;;;7.20;99.90;;;;;;5120649;27;20203;-70
2021/11/19 11:55:13;;;;;;;29.47;17.97;;;7.30;99.90;;;;;;5120900;27;20220;-71
2021/11/19 11:58:18;;;;;;;26.17;14.63;;;7.40;99.90;;;;;;5113265;27;20580;-71
2021/11/19 12:01:11;;;;;;;33.13;16.83;;;7.40;99.90;;;;;;5120459;27;20676;-71
2021/11/19 12:04:02;;;;;;;27.13;16.33;;;7.40;99.90;;;;;;5119447;27;20204;-71
2021/11/19 12:06:53;;;;;;;28.30;15.90;;;7.50;99.90;;;;;;5122918;27;20200;-71
2021/11/19 12:09:42;;;;;;;21.10;12.27;;;7.50;99.90;;;;;;5114052;27;20217;-71
2021/11/19 12:12:35;;;;;;;26.03;16.13;;;7.50;99.90;;;;;;5097625;28;20214;-71
2021/11/19 12:15:26;;;;;;;29.83;18.13;;;7.50;99.90;;;;;;5097703;28;20215;-71
2021/11/19 12:18:38;;;;;;;20.67;11.60;;;7.50;99.90;;;;;;5096950;28;20199;-71
2021/11/19 12:21:29;;;;;;;30.83;17.97;;;7.60;99.90;;;;;;5119176;27;20252;-71
2021/11/19 12:24:26;;;;;;;26.90;16.93;;;7.60;99.90;;;;;;5112374;27;20288;-71
2021/11/19 12:27:33;;;;;;;29.33;18.23;;;7.70;99.90;;;;;;5113325;27;20224;-71
2021/11/19 12:30:29;;;;;;;26.97;17.20;;;7.70;99.90;;;;;;5121087;27;20202;-71
2021/11/19 12:33:21;;;;;;;30.20;19.17;;;7.70;99.90;;;;;;5119001;27;20698;-70
2021/11/19 12:36:12;;;;;;;30.07;18.00;;;7.70;99.90;;;;;;5117498;27;20212;-71
2021/11/19 12:39:01;;;;;;;31.90;18.47;;;7.70;99.90;;;;;;5120690;27;20200;-71
2021/11/19 12:41:58;;;;;;;31.23;18.87;;;7.80;99.90;;;;;;5115617;27;20216;-70
2021/11/19 12:45:05;;;;;;;35.63;21.20;;;7.80;99.90;;;;;;5098537;28;20210;-70
2021/11/19 12:48:28;;;;;;;34.10;20.90;;;7.80;99.90;;;;;;5113099;27;20278;-70
2021/11/19 12:51:22;;;;;;;32.83;19.90;;;7.70;99.90;;;;;;5113242;27;20200;-70
2021/11/19 12:54:23;;;;;;;39.90;24.57;;;7.80;99.90;;;;;;5117695;27;20222;-70
2021/11/19 12:57:34;;;;;;;39.67;23.67;;;7.80;99.90;;;;;;5115709;27;20209;-70
2021/11/19 13:00:45;;;;;;;44.90;25.03;;;7.80;99.90;;;;;;5121477;27;20282;-71
2021/11/19 13:03:51;;;;;;;46.03;26.00;;;7.80;99.90;;;;;;5019689;28;20220;-71
2021/11/19 13:06:44;;;;;;;41.30;23.03;;;7.80;99.90;;;;;;5013741;28;20197;-71
2021/11/19 13:09:53;;;;;;;56.23;29.60;;;7.80;99.90;;;;;;5018458;28;20209;-70
2021/11/19 13:13:11;;;;;;;54.43;28.90;;;7.80;99.90;;;;;;5018312;28;20201;-70
2021/11/19 13:16:37;;;;;;;51.87;29.10;;;7.80;99.90;;;;;;5010418;28;20208;-70
2021/11/19 13:19:50;;;;;;;45.37;27.40;;;7.80;99.90;;;;;;5012990;28;20197;-70
2021/11/19 13:22:47;;;;;;;41.73;24.43;;;7.80;99.90;;;;;;5014075;28;20257;-70
2021/11/19 13:25:45;;;;;;;49.67;28.63;;;7.80;99.90;;;;;;5021236;28;20208;-71
2021/11/19 13:28:50;;;;;;;51.10;29.17;;;7.70;99.90;;;;;;5014546;28;20259;-70
2021/11/19 13:31:38;;;;;;;49.23;28.23;;;7.70;99.90;;;;;;5019611;28;20640;-70
2021/11/19 13:34:45;;;;;;;49.57;26.60;;;7.70;99.90;;;;;;5014721;28;20206;-70
2021/11/19 13:37:34;;;;;;;54.33;29.07;;;7.70;99.90;;;;;;5018256;28;20207;-71
2021/11/19 13:40:51;;;;;;;48.80;25.00;;;7.70;99.90;;;;;;5066413;28;21724;-70
2021/11/19 13:43:47;;;;;;;52.73;29.73;;;7.70;99.90;;;;;;5117696;27;20230;-70
2021/11/19 13:46:45;;;;;;;52.83;28.60;;;7.70;99.90;;;;;;5115914;28;20210;-69
2021/11/19 13:49:44;;;;;;;52.57;29.00;;;7.80;99.90;;;;;;5117077;28;20320;-71
2021/11/19 13:52:41;;;;;;;53.00;29.93;;;7.70;99.90;;;;;;5113712;28;20588;-70
2021/11/19 13:56:26;;;;;;;57.73;30.30;;;7.70;99.90;;;;;;5118601;28;20218;-70
2021/11/19 13:59:27;;;;;;;58.73;31.33;;;7.70;99.90;;;;;;5046768;28;20338;-70
2021/11/19 14:02:27;;;;;;;62.73;32.40;;;7.70;99.90;;;;;;5054806;28;20606;-72
2021/11/19 14:05:19;;;;;;;54.63;28.83;;;7.70;99.90;;;;;;5058271;28;20212;-71
2021/11/19 14:08:16;;;;;;;58.23;30.57;;;7.70;99.90;;;;;;5054283;28;20213;-70
2021/11/19 14:11:06;;;;;;;57.43;32.97;;;7.70;99.90;;;;;;5047908;28;20342;-71
2021/11/19 14:13:54;;;;;;;61.67;31.77;;;7.70;99.90;;;;;;5055070;28;20205;-70
2021/11/19 14:16:49;;;;;;;58.13;32.20;;;7.80;99.90;;;;;;5095254;28;20204;-70
2021/11/19 14:19:48;;;;;;;60.87;34.03;;;7.80;99.90;;;;;;5125029;27;20213;-70
2021/11/19 14:22:39;;;;;;;55.03;30.33;;;7.80;99.90;;;;;;5113821;27;20226;-71
2021/11/19 14:25:27;;;;;;;58.90;32.87;;;7.80;99.90;;;;;;5114537;27;20223;-71
2021/11/19 14:28:20;;;;;;;50.63;26.83;;;7.80;99.90;;;;;;5116213;27;20206;-70
2021/11/19 14:31:10;;;;;;;62.13;33.90;;;7.70;99.90;;;;;;5116411;27;20199;-71
2021/11/19 14:34:12;;;;;;;61.83;33.53;;;7.80;99.90;;;;;;5114374;27;20673;-70
2021/11/19 14:37:00;;;;;;;63.13;33.40;;;7.80;99.90;;;;;;5118878;27;20622;-71
2021/11/19 14:39:49;;;;;;;48.40;27.00;;;7.80;99.90;;;;;;5114359;27;20206;-71
2021/11/19 14:42:42;;;;;;;61.07;30.53;;;7.80;99.90;;;;;;5120312;27;20232;-71
2021/11/19 14:45:38;;;;;;;55.43;30.37;;;7.80;99.90;;;;;;5123993;27;20212;-71
2021/11/19 14:48:28;;;;;;;58.07;31.33;;;7.80;99.90;;;;;;5120244;27;20560;-71
2021/11/19 14:51:36;;;;;;;52.53;27.93;;;7.80;99.90;;;;;;5119272;27;20298;-70
2021/11/19 14:54:34;;;;;;;48.60;27.40;;;7.80;99.90;;;;;;5125636;27;20346;-72
2021/11/19 14:57:26;;;;;;;59.63;30.23;;;7.80;99.90;;;;;;5113759;27;20221;-72
2021/11/19 15:00:32;;;;;;;52.43;28.30;;;7.70;99.90;;;;;;5116170;27;20233;-72
2021/11/19 15:03:21;;;;;;;52.10;27.43;;;7.70;99.90;;;;;;5122568;27;20233;-71
2021/11/19 15:06:18;;;;;;;52.57;27.73;;;7.70;99.90;;;;;;5114557;27;20247;-72
2021/11/19 15:09:17;;;;;;;55.80;31.23;;;7.70;99.90;;;;;;5119507;27;20293;-72
2021/11/19 15:12:07;;;;;;;40.80;23.97;;;7.70;99.90;;;;;;5114531;27;20202;-71